createdAt,value
2023-09-27T00:01:22.259Z,4.40
2023-09-27T00:03:48.649Z,4.57
2023-09-27T00:06:15.505Z,4.24
2023-09-27T00:08:42.484Z,4.30
2023-09-27T00:11:09.199Z,4.29
2023-09-27T00:13:35.623Z,4.11
2023-09-27T00:16:02.011Z,4.32
2023-09-27T00:18:28.483Z,4.20
2023-09-27T00:20:54.846Z,4.30
2023-09-27T00:23:21.361Z,4.22
2023-09-27T00:25:47.868Z,4.24
2023-09-27T00:28:14.331Z,4.11
2023-09-27T00:30:40.666Z,4.51
2023-09-27T00:33:07.052Z,4.25
2023-09-27T00:35:33.485Z,4.24
2023-09-27T00:38:00.079Z,4.58
2023-09-27T00:40:26.510Z,4.11
2023-09-27T00:42:52.882Z,4.32
2023-09-27T00:45:19.221Z,4.27
2023-09-27T00:47:45.618Z,4.58
2023-09-27T00:50:11.986Z,4.54
2023-09-27T00:52:38.369Z,4.70
2023-09-27T00:55:04.775Z,4.50
2023-09-27T00:57:31.133Z,4.55
2023-09-27T00:59:57.494Z,4.66
2023-09-27T01:02:23.942Z,4.71
2023-09-27T01:04:50.350Z,4.66
2023-09-27T01:07:16.790Z,4.34
2023-09-27T01:09:43.165Z,4.51
2023-09-27T01:12:09.511Z,4.55
2023-09-27T01:14:35.931Z,4.54
2023-09-27T01:17:02.393Z,4.58
2023-09-27T01:19:28.777Z,4.75
2023-09-27T01:21:55.110Z,4.62
2023-09-27T01:24:21.493Z,4.31
2023-09-27T01:26:47.836Z,4.47
2023-09-27T01:29:14.211Z,4.61
2023-09-27T01:31:40.612Z,4.52
2023-09-27T01:34:07.011Z,4.33
2023-09-27T01:36:33.367Z,4.86
2023-09-27T01:38:59.735Z,4.57
2023-09-27T01:41:26.184Z,4.70
2023-09-27T01:43:52.598Z,4.55
2023-09-27T01:46:19.026Z,4.42
2023-09-27T01:48:45.409Z,4.34
2023-09-27T01:51:11.741Z,4.36
2023-09-27T01:53:38.130Z,4.61
2023-09-27T01:56:04.502Z,4.68
2023-09-27T01:58:30.849Z,4.49
2023-09-27T02:00:57.206Z,4.67
2023-09-27T02:03:24.700Z,4.64
2023-09-27T02:05:51.183Z,4.37
2023-09-27T02:08:17.716Z,4.30
2023-09-27T02:10:44.084Z,4.55
2023-09-27T02:13:10.441Z,4.64
2023-09-27T02:15:36.818Z,4.28
2023-09-27T02:18:03.200Z,4.27
2023-09-27T02:20:29.729Z,3.99
2023-09-27T02:22:56.260Z,4.27
2023-09-27T02:25:22.754Z,4.01
2023-09-27T02:27:49.112Z,4.66
2023-09-27T02:30:15.576Z,4.32
2023-09-27T02:32:42.118Z,4.38
2023-09-27T02:35:08.629Z,4.71
2023-09-27T02:37:35.030Z,4.42
2023-09-27T02:40:01.375Z,4.89
2023-09-27T02:42:27.725Z,4.70
2023-09-27T02:44:54.124Z,4.89
2023-09-27T02:47:20.526Z,4.27
2023-09-27T02:49:46.873Z,4.70
2023-09-27T02:52:13.239Z,4.71
2023-09-27T02:54:39.600Z,4.74
2023-09-27T02:57:07.073Z,4.53
2023-09-27T02:59:33.484Z,4.90
2023-09-27T03:01:59.901Z,4.88
2023-09-27T03:04:26.306Z,4.88
2023-09-27T03:06:52.770Z,4.88
2023-09-27T03:09:19.298Z,4.99
2023-09-27T03:11:45.656Z,4.89
2023-09-27T03:14:12.106Z,5.16
2023-09-27T03:16:38.687Z,5.07
2023-09-27T03:19:05.119Z,5.10
2023-09-27T03:21:31.504Z,5.39
2023-09-27T03:23:57.851Z,5.83
2023-09-27T03:26:24.274Z,6.10
2023-09-27T03:28:50.751Z,6.10
2023-09-27T03:31:17.218Z,6.12
2023-09-27T03:33:43.634Z,6.17
2023-09-27T03:36:10.025Z,6.14
2023-09-27T03:38:36.424Z,6.08
2023-09-27T03:41:02.867Z,6.34
2023-09-27T03:43:29.235Z,6.42
2023-09-27T03:45:55.575Z,6.63
2023-09-27T03:48:21.951Z,6.71
2023-09-27T03:50:48.334Z,6.70
2023-09-27T03:53:14.729Z,6.76
2023-09-27T03:55:41.134Z,6.37
2023-09-27T03:58:07.557Z,6.43
2023-09-27T04:00:33.993Z,6.46
2023-09-27T04:03:00.395Z,6.77
2023-09-27T04:05:26.898Z,6.66
2023-09-27T04:07:53.292Z,6.71
2023-09-27T04:10:19.631Z,7.03
2023-09-27T04:12:46.013Z,6.50
2023-09-27T04:15:12.372Z,5.95
2023-09-27T04:17:38.809Z,6.74
2023-09-27T04:20:05.556Z,6.36
2023-09-27T04:22:31.976Z,6.26
2023-09-27T04:24:58.445Z,6.30
2023-09-27T04:27:24.827Z,6.51
2023-09-27T04:29:51.168Z,6.48
2023-09-27T04:32:17.561Z,6.79
2023-09-27T04:34:43.986Z,6.46
2023-09-27T04:37:10.329Z,6.80
2023-09-27T04:39:36.660Z,6.69
2023-09-27T04:42:03.038Z,6.66
2023-09-27T04:44:29.766Z,6.28
2023-09-27T04:46:56.214Z,6.11
2023-09-27T04:49:22.669Z,6.11
2023-09-27T04:51:49.010Z,6.29
2023-09-27T04:54:15.371Z,6.27
2023-09-27T04:56:41.716Z,6.28
2023-09-27T04:59:08.116Z,6.56
2023-09-27T05:01:34.536Z,6.52
2023-09-27T05:04:01.104Z,6.85
2023-09-27T05:06:27.521Z,6.64
2023-09-27T05:08:54.124Z,6.45
2023-09-27T05:11:20.716Z,6.66
2023-09-27T05:13:47.085Z,6.35
2023-09-27T05:16:13.462Z,6.12
2023-09-27T05:18:39.861Z,5.80
2023-09-27T05:21:06.234Z,5.93
2023-09-27T05:23:32.698Z,6.26
2023-09-27T05:25:59.236Z,5.89
2023-09-27T05:28:25.624Z,5.63
2023-09-27T05:30:51.987Z,6.02
2023-09-27T05:33:18.405Z,6.18
2023-09-27T05:35:44.812Z,6.40
2023-09-27T05:38:11.202Z,6.59
2023-09-27T05:40:37.586Z,6.60
2023-09-27T05:43:03.954Z,6.92
2023-09-27T05:45:30.384Z,7.13
2023-09-27T05:47:56.890Z,6.85
2023-09-27T05:50:23.389Z,6.87
2023-09-27T05:52:49.763Z,6.81
2023-09-27T05:55:16.139Z,6.53
2023-09-27T05:57:42.503Z,6.98
2023-09-27T06:00:08.850Z,7.04
2023-09-27T06:02:35.280Z,6.76
2023-09-27T06:05:02.009Z,6.56
2023-09-27T06:07:28.437Z,6.17
2023-09-27T06:09:54.806Z,6.54
2023-09-27T06:12:21.156Z,6.48
2023-09-27T06:14:47.504Z,6.14
2023-09-27T06:17:13.969Z,6.32
2023-09-27T06:19:40.410Z,6.48
2023-09-27T06:22:06.789Z,6.84
2023-09-27T06:24:33.201Z,6.65
2023-09-27T06:26:59.547Z,6.55
2023-09-27T06:29:25.941Z,6.93
2023-09-27T06:31:52.863Z,7.12
2023-09-27T06:34:19.225Z,6.84
2023-09-27T06:36:45.652Z,7.19
2023-09-27T06:39:12.032Z,6.90
2023-09-27T06:41:38.385Z,7.16
2023-09-27T06:44:04.823Z,7.42
2023-09-27T06:46:42.914Z,7.62
2023-09-27T06:49:14.783Z,7.33
2023-09-27T06:51:41.175Z,7.60
2023-09-27T06:54:07.593Z,7.36
2023-09-27T06:56:34.171Z,7.36
2023-09-27T06:59:00.600Z,7.86
2023-09-27T07:01:27.017Z,8.21
2023-09-27T07:03:53.537Z,7.60
2023-09-27T07:06:20.011Z,7.49
2023-09-27T07:08:46.425Z,7.51
2023-09-27T07:11:12.888Z,7.32
2023-09-27T07:13:39.459Z,7.30
2023-09-27T07:16:05.809Z,7.44
2023-09-27T07:18:32.348Z,7.60
2023-09-27T07:20:58.861Z,7.17
2023-09-27T07:23:25.203Z,7.11
2023-09-27T07:25:51.551Z,7.57
2023-09-27T07:28:17.915Z,7.53
2023-09-27T07:30:44.268Z,7.95
2023-09-27T07:33:10.863Z,7.82
2023-09-27T07:35:37.390Z,6.99
2023-09-27T07:38:03.794Z,7.47
2023-09-27T07:40:30.214Z,7.20
2023-09-27T07:42:56.596Z,7.71
2023-09-27T07:45:23.160Z,7.67
2023-09-27T07:47:49.989Z,6.57
2023-09-27T07:50:16.530Z,6.96
2023-09-27T07:52:42.941Z,6.19
2023-09-27T07:55:09.289Z,5.96
2023-09-27T07:57:35.689Z,6.11
2023-09-27T08:00:02.047Z,6.00
2023-09-27T08:02:28.471Z,5.78
2023-09-27T08:04:54.938Z,5.21
2023-09-27T08:07:21.287Z,5.64
2023-09-27T08:09:47.644Z,5.90
2023-09-27T08:12:14.023Z,6.05
2023-09-27T08:14:40.390Z,5.72
2023-09-27T08:17:06.807Z,6.52
2023-09-27T08:19:33.235Z,6.39
2023-09-27T08:21:59.597Z,6.45
2023-09-27T08:24:26.016Z,6.16
2023-09-27T08:26:52.444Z,6.38
2023-09-27T08:29:18.839Z,6.22
2023-09-27T08:31:45.261Z,6.39
2023-09-27T08:34:11.627Z,6.41
2023-09-27T08:36:38.173Z,6.99
2023-09-27T08:39:04.534Z,6.22
2023-09-27T08:41:30.952Z,6.88
2023-09-27T08:43:57.317Z,6.01
2023-09-27T08:46:23.667Z,6.75
2023-09-27T08:48:50.060Z,6.59
2023-09-27T08:51:16.396Z,6.32
2023-09-27T08:53:42.775Z,6.54
2023-09-27T08:56:09.194Z,6.42
2023-09-27T08:58:35.589Z,6.76
2023-09-27T09:01:01.937Z,6.30
2023-09-27T09:03:28.413Z,6.32
2023-09-27T09:05:54.915Z,6.76
2023-09-27T09:08:33.268Z,6.64
2023-09-27T09:11:07.674Z,6.52
2023-09-27T09:13:34.037Z,6.39
2023-09-27T09:16:00.401Z,6.30
2023-09-27T09:18:26.944Z,6.64
2023-09-27T09:20:53.344Z,6.49
2023-09-27T09:23:19.713Z,6.29
2023-09-27T09:25:46.108Z,6.48
2023-09-27T09:28:12.450Z,6.21
2023-09-27T09:30:38.892Z,6.24
2023-09-27T09:33:05.429Z,6.10
2023-09-27T09:35:31.896Z,5.92
2023-09-27T09:37:58.279Z,6.73
2023-09-27T09:40:24.658Z,6.63
2023-09-27T09:42:50.999Z,6.54
2023-09-27T09:45:17.348Z,5.93
2023-09-27T09:47:43.786Z,6.57
2023-09-27T09:50:10.286Z,6.43
2023-09-27T09:52:36.677Z,6.64
2023-09-27T09:55:11.775Z,6.41
2023-09-27T09:57:53.035Z,6.66
2023-09-27T10:00:20.370Z,6.63
2023-09-27T10:02:46.798Z,7.00
2023-09-27T10:05:13.293Z,6.97
2023-09-27T10:07:39.817Z,6.83
2023-09-27T10:10:06.166Z,7.16
2023-09-27T10:12:32.514Z,6.90
2023-09-27T10:14:58.886Z,6.77
2023-09-27T10:17:25.286Z,6.71
2023-09-27T10:19:51.632Z,6.55
2023-09-27T10:22:18.013Z,6.30
2023-09-27T10:24:44.400Z,6.71
2023-09-27T10:27:10.755Z,6.29
2023-09-27T10:29:37.183Z,6.29
2023-09-27T10:32:03.599Z,6.80
2023-09-27T10:34:29.973Z,6.44
2023-09-27T10:37:10.606Z,6.44
2023-09-27T10:39:42.671Z,6.44
2023-09-27T10:42:09.113Z,6.19
2023-09-27T10:44:35.601Z,6.42
2023-09-27T10:47:01.958Z,6.45
2023-09-27T10:49:28.348Z,7.03
2023-09-27T10:52:05.856Z,6.72
2023-09-27T10:54:32.994Z,7.00
2023-09-27T10:56:59.369Z,7.02
2023-09-27T10:59:25.794Z,6.10
2023-09-27T11:01:52.287Z,6.54
2023-09-27T11:04:18.687Z,6.62
2023-09-27T11:06:45.069Z,6.41
2023-09-27T11:09:11.453Z,5.68
2023-09-27T11:11:37.864Z,5.87
2023-09-27T11:14:04.237Z,6.13
2023-09-27T11:16:30.625Z,6.38
2023-09-27T11:18:57.035Z,6.31
2023-09-27T11:21:23.388Z,6.56
2023-09-27T11:23:49.889Z,6.54
2023-09-27T11:26:16.301Z,7.09
2023-09-27T11:28:42.653Z,7.26
2023-09-27T11:31:09.027Z,6.78
2023-09-27T11:33:35.438Z,6.87
2023-09-27T11:36:01.820Z,6.71
2023-09-27T11:38:28.224Z,7.23
2023-09-27T11:40:54.593Z,7.91
2023-09-27T11:43:20.934Z,8.31
2023-09-27T11:45:47.462Z,7.79
2023-09-27T11:48:13.991Z,7.23
2023-09-27T11:50:40.576Z,8.12
2023-09-27T11:53:07.093Z,7.31
2023-09-27T11:55:33.432Z,7.93
2023-09-27T11:57:59.800Z,7.64
2023-09-27T12:00:26.213Z,7.32
2023-09-27T12:02:57.688Z,7.56
2023-09-27T12:05:25.179Z,6.60
2023-09-27T12:07:52.023Z,6.38
2023-09-27T12:10:18.419Z,6.37
2023-09-27T12:12:44.842Z,7.38
2023-09-27T12:15:11.227Z,6.29
2023-09-27T12:17:37.657Z,6.97
2023-09-27T12:20:04.110Z,7.09
2023-09-27T12:22:30.471Z,6.62
2023-09-27T12:24:56.868Z,6.48
2023-09-27T12:27:23.215Z,6.34
2023-09-27T12:29:49.617Z,6.08
2023-09-27T12:32:16.042Z,6.29
2023-09-27T12:34:42.408Z,5.83
2023-09-27T12:37:08.832Z,6.78
2023-09-27T12:39:35.200Z,7.18
2023-09-27T12:42:01.541Z,6.27
2023-09-27T12:44:27.944Z,6.21
2023-09-27T12:46:54.430Z,6.51
2023-09-27T12:49:20.888Z,6.68
2023-09-27T12:51:49.933Z,5.97
2023-09-27T12:54:16.552Z,5.79
2023-09-27T12:56:43.043Z,5.25
2023-09-27T12:59:09.527Z,5.48
2023-09-27T13:01:37.501Z,5.28
2023-09-27T13:04:04.059Z,5.42
2023-09-27T13:06:30.589Z,5.35
2023-09-27T13:08:57.129Z,5.47
2023-09-27T13:11:23.589Z,5.53
2023-09-27T13:13:49.997Z,4.87
2023-09-27T13:16:16.374Z,5.50
2023-09-27T13:18:42.754Z,4.98
2023-09-27T13:21:09.131Z,4.72
2023-09-27T13:23:35.511Z,4.60
2023-09-27T13:26:01.892Z,4.95
2023-09-27T13:28:28.326Z,4.78
2023-09-27T13:30:54.745Z,4.53
2023-09-27T13:33:21.210Z,4.81
2023-09-27T13:35:47.729Z,5.10
2023-09-27T13:38:14.125Z,4.96
2023-09-27T13:40:40.533Z,5.19
2023-09-27T13:43:06.940Z,5.21
2023-09-27T13:45:33.509Z,4.92
2023-09-27T13:48:00.146Z,4.96
2023-09-27T13:50:26.721Z,4.79
2023-09-27T13:52:53.147Z,5.14
2023-09-27T13:55:19.500Z,5.26
2023-09-27T13:57:45.885Z,4.77
2023-09-27T14:00:12.275Z,4.76
2023-09-27T14:02:39.629Z,4.73
2023-09-27T14:05:07.677Z,5.09
2023-09-27T14:07:34.054Z,5.10
2023-09-27T14:10:00.412Z,5.23
2023-09-27T14:12:26.798Z,5.14
2023-09-27T14:14:53.155Z,4.86
2023-09-27T14:17:19.589Z,4.91
2023-09-27T14:19:46.016Z,5.09
2023-09-27T14:22:12.360Z,4.79
2023-09-27T14:24:38.786Z,4.85
2023-09-27T14:27:05.185Z,4.89
2023-09-27T14:29:35.787Z,5.13
2023-09-27T14:32:02.615Z,4.72
2023-09-27T14:34:41.212Z,5.04
2023-09-27T14:37:08.721Z,4.99
2023-09-27T14:39:35.345Z,5.10
2023-09-27T14:42:01.701Z,5.35
2023-09-27T14:44:28.100Z,5.24
2023-09-27T14:46:54.600Z,5.28
2023-09-27T14:49:21.119Z,4.96
2023-09-27T14:51:47.504Z,5.26
2023-09-27T14:54:13.883Z,5.14
2023-09-27T14:56:40.231Z,5.21
2023-09-27T14:59:06.641Z,5.98
2023-09-27T15:01:33.185Z,7.68
2023-09-27T15:03:59.738Z,7.86
2023-09-27T15:06:26.115Z,5.60
2023-09-27T15:08:52.531Z,5.63
2023-09-27T15:11:18.869Z,5.19
2023-09-27T15:13:45.320Z,4.73
2023-09-27T15:16:11.765Z,4.87
2023-09-27T15:18:38.154Z,5.31
2023-09-27T15:21:04.510Z,5.37
2023-09-27T15:23:30.895Z,5.44
2023-09-27T15:25:57.254Z,5.35
2023-09-27T15:28:23.656Z,4.90
2023-09-27T15:30:50.035Z,5.36
2023-09-27T15:33:16.433Z,5.13
2023-09-27T15:35:42.833Z,4.93
2023-09-27T15:38:09.248Z,5.40
2023-09-27T15:40:35.636Z,5.03
2023-09-27T15:43:02.082Z,4.81
2023-09-27T15:45:28.593Z,4.61
2023-09-27T15:47:54.980Z,4.91
2023-09-27T15:50:21.321Z,4.98
2023-09-27T15:52:47.750Z,5.14
2023-09-27T15:55:14.157Z,4.74
2023-09-27T15:57:40.508Z,4.58
2023-09-27T16:00:06.880Z,4.70
2023-09-27T16:02:33.259Z,4.56
2023-09-27T16:04:59.648Z,4.66
2023-09-27T16:07:26.080Z,4.84
2023-09-27T16:09:52.509Z,4.69
2023-09-27T16:12:18.893Z,5.24
2023-09-27T16:14:45.274Z,5.39
2023-09-27T16:17:11.688Z,4.99
2023-09-27T16:19:38.123Z,5.09
2023-09-27T16:22:04.576Z,5.09
2023-09-27T16:24:31.017Z,3.52
2023-09-27T16:26:57.465Z,3.42
2023-09-27T16:29:23.863Z,2.72
2023-09-27T16:31:50.456Z,2.84
2023-09-27T16:34:16.845Z,3.38
2023-09-27T16:36:45.772Z,3.22
2023-09-27T16:39:12.358Z,3.70
2023-09-27T16:41:38.716Z,5.00
2023-09-27T16:44:05.116Z,5.25
2023-09-27T16:46:31.517Z,6.35
2023-09-27T16:48:57.888Z,6.43
2023-09-27T16:51:24.255Z,8.01
2023-09-27T16:53:50.608Z,10.31
2023-09-27T16:56:16.956Z,8.90
2023-09-27T16:58:43.354Z,7.39
2023-09-27T17:01:09.758Z,6.75
2023-09-27T17:06:19.764Z,5.36
2023-09-27T17:08:46.233Z,4.76
2023-09-27T17:11:12.617Z,4.11
2023-09-27T17:13:39.054Z,3.79
2023-09-27T17:16:05.445Z,4.34
2023-09-27T17:18:33.568Z,4.85
2023-09-27T17:21:00.488Z,4.89
2023-09-27T17:23:26.841Z,4.68
2023-09-27T17:25:53.245Z,5.28
2023-09-27T17:28:19.670Z,4.91
2023-09-27T17:30:46.037Z,4.10
2023-09-27T17:33:12.622Z,3.96
2023-09-27T17:35:39.340Z,3.61
2023-09-27T17:38:05.737Z,3.30
2023-09-27T17:40:32.207Z,3.37
2023-09-27T17:42:58.593Z,3.18
2023-09-27T17:45:25.027Z,3.17
2023-09-27T17:47:51.388Z,3.29
2023-09-27T17:50:17.787Z,3.27
2023-09-27T17:52:44.181Z,3.17
2023-09-27T17:55:10.589Z,3.01
2023-09-27T17:57:36.954Z,3.38
2023-09-27T18:00:03.286Z,4.32
2023-09-27T18:02:29.789Z,3.41
2023-09-27T18:04:56.324Z,3.14
2023-09-27T18:07:22.700Z,3.21
2023-09-27T18:09:49.069Z,3.50
2023-09-27T18:12:15.478Z,3.35
2023-09-27T18:14:41.852Z,3.38
2023-09-27T18:17:08.246Z,3.73
2023-09-27T18:19:34.668Z,3.25
2023-09-27T18:22:01.035Z,3.46
2023-09-27T18:24:27.375Z,2.89
2023-09-27T18:26:53.774Z,3.15
2023-09-27T18:29:20.106Z,3.06
2023-09-27T18:31:46.596Z,3.56
2023-09-27T18:34:13.030Z,3.29
2023-09-27T18:36:39.447Z,2.83
2023-09-27T18:39:05.796Z,2.56
2023-09-27T18:41:32.183Z,2.70
2023-09-27T18:43:58.562Z,2.83
2023-09-27T18:46:25.024Z,2.70
2023-09-27T18:48:51.773Z,2.88
2023-09-27T18:51:18.224Z,2.79
2023-09-27T18:53:44.577Z,2.70
2023-09-27T18:56:10.953Z,2.83
2023-09-27T18:58:37.325Z,2.68
2023-09-27T19:01:03.718Z,2.72
2023-09-27T19:03:30.090Z,2.81
2023-09-27T19:05:56.436Z,2.89
2023-09-27T19:08:22.786Z,3.11
2023-09-27T19:10:49.166Z,3.29
2023-09-27T19:13:15.536Z,2.96
2023-09-27T19:15:41.934Z,2.63
2023-09-27T19:18:08.377Z,2.86
2023-09-27T19:20:34.746Z,2.68
2023-09-27T19:23:01.115Z,2.56
2023-09-27T19:25:27.568Z,2.72
2023-09-27T19:27:53.943Z,2.28
2023-09-27T19:30:20.298Z,2.24
2023-09-27T19:32:46.735Z,2.39
2023-09-27T19:35:13.149Z,2.70
2023-09-27T19:37:39.534Z,2.97
2023-09-27T19:40:05.924Z,2.53
2023-09-27T19:42:32.278Z,2.36
2023-09-27T19:44:58.617Z,2.37
2023-09-27T19:47:25.077Z,2.58
2023-09-27T19:49:51.468Z,2.52
2023-09-27T19:52:17.826Z,2.28
2023-09-27T19:54:44.207Z,2.23
2023-09-27T19:57:10.581Z,2.37
2023-09-27T19:59:36.964Z,2.35
2023-09-27T20:02:03.387Z,2.38
2023-09-27T20:04:29.789Z,2.38
2023-09-27T20:06:56.210Z,2.33
2023-09-27T20:09:22.602Z,2.49
2023-09-27T20:11:48.936Z,2.67
2023-09-27T20:14:15.343Z,2.59
2023-09-27T20:16:41.763Z,2.52
2023-09-27T20:19:08.124Z,2.84
2023-09-27T20:21:34.479Z,2.80
2023-09-27T20:24:00.831Z,2.69
2023-09-27T20:26:27.170Z,2.85
2023-09-27T20:28:53.538Z,2.87
2023-09-27T20:31:19.992Z,3.40
2023-09-27T20:33:46.394Z,3.12
2023-09-27T20:36:12.756Z,3.00
2023-09-27T20:38:39.213Z,3.06
2023-09-27T20:41:05.595Z,3.17
2023-09-27T20:43:32.013Z,3.57
2023-09-27T20:45:58.533Z,3.45
2023-09-27T20:48:24.949Z,3.35
2023-09-27T20:50:51.290Z,3.27
2023-09-27T20:53:17.672Z,3.26
2023-09-27T20:55:44.047Z,3.21
2023-09-27T20:58:10.469Z,3.45
2023-09-27T21:00:36.871Z,3.39
2023-09-27T21:03:03.260Z,3.43
2023-09-27T21:05:29.599Z,3.27
2023-09-27T21:07:56.022Z,3.77
2023-09-27T21:10:22.366Z,3.42
2023-09-27T21:12:48.762Z,3.49
2023-09-27T21:15:15.124Z,3.55
2023-09-27T21:17:41.563Z,3.67
2023-09-27T21:20:07.926Z,3.36
2023-09-27T21:22:40.125Z,3.61
2023-09-27T21:25:06.505Z,3.34
2023-09-27T21:27:32.859Z,3.70
2023-09-27T21:29:59.250Z,3.87
2023-09-27T21:32:25.658Z,3.90
2023-09-27T21:34:52.091Z,3.73
2023-09-27T21:37:18.471Z,3.67
2023-09-27T21:39:44.815Z,3.71
2023-09-27T21:42:11.188Z,3.91
2023-09-27T21:44:37.565Z,4.11
2023-09-27T21:47:03.955Z,4.18
2023-09-27T21:49:30.341Z,3.97
2023-09-27T21:51:56.736Z,3.91
2023-09-27T21:54:23.108Z,3.80
2023-09-27T21:56:49.538Z,3.84
2023-09-27T21:59:15.982Z,3.74
2023-09-27T22:01:42.437Z,3.59
2023-09-27T22:04:08.798Z,3.90
2023-09-27T22:06:35.266Z,3.74
2023-09-27T22:09:01.623Z,3.87
2023-09-27T22:11:27.967Z,4.21
2023-09-27T22:13:54.540Z,4.08
2023-09-27T22:16:21.156Z,4.11
2023-09-27T22:18:47.506Z,4.57
2023-09-27T22:21:13.880Z,3.86
2023-09-27T22:23:40.292Z,4.01
2023-09-27T22:26:07.020Z,4.02
2023-09-27T22:28:33.468Z,3.97
2023-09-27T22:30:59.864Z,3.90
2023-09-27T22:33:26.235Z,4.23
2023-09-27T22:35:52.646Z,4.19
2023-09-27T22:38:19.001Z,4.16
2023-09-27T22:40:45.388Z,4.03
2023-09-27T22:43:11.807Z,4.22
2023-09-27T22:45:38.175Z,4.25
2023-09-27T22:48:04.575Z,4.17
2023-09-27T22:50:30.994Z,3.71
2023-09-27T22:52:57.401Z,4.29
2023-09-27T22:55:23.741Z,3.92
2023-09-27T22:57:50.117Z,3.82
2023-09-27T23:00:17.296Z,3.86
2023-09-27T23:02:44.948Z,3.51
2023-09-27T23:05:11.389Z,3.77
2023-09-27T23:07:37.770Z,3.59
2023-09-27T23:10:04.255Z,3.55
2023-09-27T23:12:30.751Z,3.70
2023-09-27T23:14:57.106Z,3.75
2023-09-27T23:17:23.448Z,3.81
2023-09-27T23:19:49.873Z,3.82
2023-09-27T23:22:16.242Z,3.82
2023-09-27T23:24:42.581Z,3.70
2023-09-27T23:27:08.942Z,3.92
2023-09-27T23:29:35.411Z,3.73
2023-09-27T23:32:01.783Z,3.74
2023-09-27T23:34:28.220Z,3.85
2023-09-27T23:36:54.626Z,4.23
2023-09-27T23:39:20.960Z,3.89
2023-09-27T23:41:47.343Z,4.12
2023-09-27T23:44:13.704Z,4.06
2023-09-27T23:46:40.195Z,4.06
2023-09-27T23:49:06.647Z,4.26
2023-09-27T23:51:33.002Z,4.13
2023-09-27T23:53:59.353Z,4.45
2023-09-27T23:56:25.739Z,4.28
2023-09-27T23:58:52.145Z,4.35
